createdAt,value
2019-05-18T00:00:10.415Z,27.37
2019-05-18T00:02:38.987Z,26.97
2019-05-18T00:05:08.822Z,30.32
2019-05-18T00:07:37.454Z,26.37
2019-05-18T00:10:07.362Z,30.82
2019-05-18T00:12:35.954Z,30.65
2019-05-18T00:15:06.836Z,29.35
2019-05-18T00:17:35.420Z,29.23
2019-05-18T00:20:08.183Z,30.08
2019-05-18T00:22:36.961Z,30.65
2019-05-18T00:25:09.256Z,28.05
2019-05-18T00:27:37.770Z,29.50
2019-05-18T00:30:10.595Z,31.00
2019-05-18T00:32:39.083Z,30.82
2019-05-18T00:35:08.169Z,31.02
2019-05-18T00:37:36.645Z,29.75
2019-05-18T00:40:07.853Z,29.37
2019-05-18T00:42:36.388Z,30.50
2019-05-18T00:45:07.104Z,33.02
2019-05-18T00:47:41.255Z,31.27
2019-05-18T00:50:06.828Z,30.05
2019-05-18T00:52:35.410Z,28.83
2019-05-18T00:55:05.297Z,28.90
2019-05-18T00:57:33.745Z,33.73
2019-05-18T01:00:02.195Z,32.33
2019-05-18T01:02:30.714Z,32.10
2019-05-18T01:04:59.271Z,32.35
2019-05-18T01:07:27.717Z,32.88
2019-05-18T01:09:56.250Z,29.63
2019-05-18T01:12:24.868Z,32.10
2019-05-18T01:14:53.324Z,37.48
2019-05-18T01:17:21.904Z,34.10
2019-05-18T01:19:50.798Z,31.77
2019-05-18T01:22:19.393Z,33.10
2019-05-18T01:24:47.968Z,35.00
2019-05-18T01:27:16.495Z,31.57
2019-05-18T01:29:45.028Z,30.45
2019-05-18T01:32:13.599Z,36.15
2019-05-18T01:34:42.126Z,32.30
2019-05-18T01:37:10.727Z,34.48
2019-05-18T01:39:39.254Z,34.53
2019-05-18T01:42:07.774Z,33.40
2019-05-18T01:44:36.399Z,31.93
2019-05-18T01:47:04.982Z,33.83
2019-05-18T01:49:33.511Z,37.70
2019-05-18T01:52:02.034Z,32.28
2019-05-18T01:54:30.533Z,36.77
2019-05-18T01:56:59.054Z,34.18
2019-05-18T01:59:27.588Z,35.70
2019-05-18T02:01:56.171Z,34.55
2019-05-18T02:04:24.756Z,38.98
2019-05-18T02:06:53.389Z,40.78
2019-05-18T02:09:21.903Z,37.00
2019-05-18T02:11:50.559Z,38.73
2019-05-18T02:14:19.079Z,35.63
2019-05-18T02:16:47.590Z,37.45
2019-05-18T02:19:16.248Z,36.53
2019-05-18T02:21:44.764Z,36.85
2019-05-18T02:24:13.291Z,34.58
2019-05-18T02:26:41.798Z,36.23
2019-05-18T02:29:10.323Z,35.63
2019-05-18T02:31:38.834Z,40.05
2019-05-18T02:34:07.421Z,38.60
2019-05-18T02:36:36.002Z,39.83
2019-05-18T02:39:06.967Z,40.65
2019-05-18T02:41:35.626Z,45.03
2019-05-18T02:44:04.619Z,41.73
2019-05-18T02:46:33.135Z,45.38
2019-05-18T02:49:01.644Z,38.60
2019-05-18T02:51:30.233Z,39.45
2019-05-18T02:53:58.747Z,42.05
2019-05-18T02:56:27.260Z,38.33
2019-05-18T02:58:55.774Z,42.75
2019-05-18T03:01:24.225Z,38.40
2019-05-18T03:03:52.763Z,37.63
2019-05-18T03:06:21.527Z,40.65
2019-05-18T03:08:50.221Z,38.28
2019-05-18T03:11:18.669Z,39.45
2019-05-18T03:13:47.181Z,42.95
2019-05-18T03:16:15.774Z,40.63
2019-05-18T03:18:44.482Z,40.48
2019-05-18T03:21:13.253Z,46.18
2019-05-18T03:23:41.943Z,43.28
2019-05-18T03:26:10.385Z,43.68
2019-05-18T03:28:38.896Z,44.67
2019-05-18T03:31:07.522Z,45.23
2019-05-18T03:33:36.106Z,40.55
2019-05-18T03:36:04.752Z,44.13
2019-05-18T03:38:33.163Z,40.70
2019-05-18T03:41:01.719Z,44.33
2019-05-18T03:43:30.208Z,45.90
2019-05-18T03:45:58.691Z,44.93
2019-05-18T03:48:27.219Z,42.25
2019-05-18T03:50:55.693Z,45.75
2019-05-18T03:53:24.204Z,41.10
2019-05-18T03:55:52.655Z,42.58
2019-05-18T03:58:21.191Z,46.33
2019-05-18T04:00:49.639Z,40.05
2019-05-18T04:03:18.115Z,42.38
2019-05-18T04:05:46.627Z,43.60
2019-05-18T04:08:15.198Z,43.15
2019-05-18T04:10:43.667Z,40.83
2019-05-18T04:13:12.309Z,42.48
2019-05-18T04:15:40.749Z,40.20
2019-05-18T04:18:09.303Z,43.23
2019-05-18T04:20:37.900Z,38.73
2019-05-18T04:23:06.447Z,38.30
2019-05-18T04:25:34.990Z,39.75
2019-05-18T04:28:03.521Z,39.83
2019-05-18T04:30:32.047Z,39.83
2019-05-18T04:33:00.731Z,38.85
2019-05-18T04:35:29.280Z,40.45
2019-05-18T04:37:57.871Z,38.13
2019-05-18T04:40:26.668Z,38.63
2019-05-18T04:42:55.142Z,39.23
2019-05-18T04:45:23.848Z,34.10
2019-05-18T04:47:52.416Z,37.30
2019-05-18T04:50:21.016Z,40.67
2019-05-18T04:52:49.501Z,38.92
2019-05-18T04:55:18.052Z,39.90
2019-05-18T04:57:46.521Z,38.13
2019-05-18T05:00:15.157Z,39.90
2019-05-18T05:02:43.670Z,39.05
2019-05-18T05:05:12.256Z,38.15
2019-05-18T05:07:40.732Z,34.67
2019-05-18T05:10:09.419Z,32.38
2019-05-18T05:12:37.872Z,34.60
2019-05-18T05:15:06.797Z,30.68
2019-05-18T05:17:35.244Z,31.93
2019-05-18T05:20:18.634Z,30.35
2019-05-18T05:22:35.741Z,28.77
2019-05-18T05:25:04.488Z,28.87
2019-05-18T05:27:32.933Z,28.42
2019-05-18T05:30:01.486Z,29.40
2019-05-18T05:32:29.976Z,28.42
2019-05-18T05:34:58.495Z,31.57
2019-05-18T05:37:26.946Z,31.33
2019-05-18T05:39:55.493Z,30.02
2019-05-18T05:42:23.936Z,27.77
2019-05-18T05:44:52.486Z,30.05
2019-05-18T05:47:21.019Z,29.60
2019-05-18T05:49:49.491Z,30.25
2019-05-18T05:52:17.940Z,31.75
2019-05-18T05:54:46.537Z,27.93
2019-05-18T05:57:15.001Z,30.43
2019-05-18T05:59:43.454Z,31.68
2019-05-18T06:02:12.068Z,31.07
2019-05-18T06:04:40.594Z,29.25
2019-05-18T06:07:09.117Z,27.87
2019-05-18T06:09:37.660Z,27.25
2019-05-18T06:12:06.194Z,24.02
2019-05-18T06:14:34.760Z,25.43
2019-05-18T06:17:03.303Z,24.57
2019-05-18T06:19:31.760Z,24.98
2019-05-18T06:22:00.304Z,24.20
2019-05-18T06:24:28.788Z,28.92
2019-05-18T06:26:57.505Z,24.23
2019-05-18T06:29:26.061Z,24.55
2019-05-18T06:31:54.594Z,22.58
2019-05-18T06:34:23.152Z,23.20
2019-05-18T06:36:51.879Z,21.95
2019-05-18T06:39:20.315Z,23.90
2019-05-18T06:41:48.865Z,22.48
2019-05-18T06:44:17.538Z,24.40
2019-05-18T06:46:46.080Z,21.85
2019-05-18T06:49:14.606Z,24.02
2019-05-18T06:51:43.130Z,23.42
2019-05-18T06:54:11.748Z,21.73
2019-05-18T06:56:40.706Z,21.62
2019-05-18T06:59:10.287Z,23.70
2019-05-18T07:01:38.887Z,24.05
2019-05-18T07:04:07.499Z,23.22
2019-05-18T07:06:36.067Z,23.32
2019-05-18T07:09:12.939Z,21.45
2019-05-18T07:11:37.398Z,20.50
2019-05-18T07:14:06.001Z,23.00
2019-05-18T07:16:34.589Z,22.55
2019-05-18T07:19:03.203Z,20.43
2019-05-18T07:21:31.726Z,21.33
2019-05-18T07:24:00.248Z,24.85
2019-05-18T07:26:28.696Z,21.52
2019-05-18T07:28:57.292Z,20.68
2019-05-18T07:31:25.834Z,19.20
2019-05-18T07:33:54.355Z,21.33
2019-05-18T07:36:22.876Z,22.55
2019-05-18T07:38:51.333Z,20.00
2019-05-18T07:41:19.788Z,23.22
2019-05-18T07:43:48.461Z,19.95
2019-05-18T07:46:16.983Z,24.02
2019-05-18T07:48:45.593Z,21.87
2019-05-18T07:51:14.209Z,20.65
2019-05-18T07:53:42.727Z,24.25
2019-05-18T07:56:11.261Z,22.20
2019-05-18T07:58:39.699Z,19.15
2019-05-18T08:01:08.289Z,19.15
2019-05-18T08:03:36.897Z,20.05
2019-05-18T08:06:05.491Z,16.90
2019-05-18T08:08:34.008Z,17.95
2019-05-18T08:11:02.534Z,16.23
2019-05-18T08:13:31.142Z,15.60
2019-05-18T08:15:59.677Z,15.03
2019-05-18T08:18:28.215Z,16.93
2019-05-18T08:20:56.700Z,15.50
2019-05-18T08:23:25.255Z,15.98
2019-05-18T08:25:53.949Z,15.13
2019-05-18T08:28:22.647Z,16.23
2019-05-18T08:30:51.166Z,15.75
2019-05-18T08:33:19.690Z,13.05
2019-05-18T08:35:48.207Z,17.17
2019-05-18T08:38:16.755Z,14.65
2019-05-18T08:40:45.344Z,15.00
2019-05-18T08:43:13.958Z,14.95
2019-05-18T08:45:42.556Z,14.98
2019-05-18T08:48:11.084Z,16.35
2019-05-18T08:50:39.586Z,11.43
2019-05-18T08:53:08.109Z,13.30
2019-05-18T08:55:36.700Z,15.18
2019-05-18T08:58:05.216Z,9.63
2019-05-18T09:00:33.886Z,12.10
2019-05-18T09:03:02.512Z,10.15
2019-05-18T09:05:31.086Z,6.80
2019-05-18T09:07:59.545Z,10.68
2019-05-18T09:10:28.164Z,9.45
2019-05-18T09:12:56.801Z,15.60
2019-05-18T09:15:25.490Z,11.33
2019-05-18T09:17:53.951Z,13.95
2019-05-18T09:20:22.646Z,8.78
2019-05-18T09:22:51.381Z,8.10
2019-05-18T09:25:20.139Z,7.85
2019-05-18T09:27:48.691Z,8.43
2019-05-18T09:30:17.506Z,8.85
2019-05-18T09:32:46.050Z,4.60
2019-05-18T09:35:15.086Z,4.95
2019-05-18T09:37:43.665Z,5.87
2019-05-18T09:40:14.050Z,5.20
2019-05-18T09:42:42.657Z,5.90
2019-05-18T09:45:12.339Z,8.03
2019-05-18T09:47:40.957Z,7.45
2019-05-18T09:50:09.734Z,9.38
2019-05-18T09:52:46.374Z,11.50
2019-05-18T09:55:09.195Z,8.80
2019-05-18T09:57:37.813Z,9.40
2019-05-18T10:00:11.226Z,7.85
2019-05-18T10:02:40.095Z,8.43
2019-05-18T10:05:08.902Z,8.90
2019-05-18T10:07:37.487Z,8.43
2019-05-18T10:10:07.810Z,9.93
2019-05-18T10:12:36.479Z,9.73
2019-05-18T10:15:07.283Z,10.23
2019-05-18T10:17:35.798Z,10.60
2019-05-18T10:20:07.568Z,10.78
2019-05-18T10:22:36.105Z,10.68
2019-05-18T10:25:07.280Z,9.13
2019-05-18T10:27:35.758Z,10.72
2019-05-18T10:30:09.025Z,9.00
2019-05-18T10:32:37.814Z,9.78
2019-05-18T10:35:08.112Z,11.38
2019-05-18T10:37:36.688Z,9.38
2019-05-18T10:40:07.688Z,8.55
2019-05-18T10:42:36.274Z,9.03
2019-05-18T10:45:06.296Z,9.38
2019-05-18T10:47:34.876Z,8.38
2019-05-18T10:50:03.580Z,7.83
2019-05-18T10:52:32.058Z,8.05
2019-05-18T10:55:00.607Z,8.10
2019-05-18T10:57:29.132Z,7.22
2019-05-18T10:59:57.740Z,9.65
2019-05-18T11:02:26.323Z,9.50
2019-05-18T11:04:54.958Z,6.80
2019-05-18T11:07:23.615Z,7.25
2019-05-18T11:09:52.182Z,8.68
2019-05-18T11:12:20.767Z,6.80
2019-05-18T11:14:49.385Z,7.30
2019-05-18T11:17:17.900Z,9.18
2019-05-18T11:19:46.526Z,6.28
2019-05-18T11:22:15.052Z,8.65
2019-05-18T11:24:43.675Z,7.03
2019-05-18T11:27:12.273Z,6.95
2019-05-18T11:29:40.870Z,8.30
2019-05-18T11:32:09.529Z,6.80
2019-05-18T11:34:38.225Z,7.33
2019-05-18T11:37:06.839Z,6.60
2019-05-18T11:39:35.359Z,6.03
2019-05-18T11:42:03.872Z,6.62
2019-05-18T11:44:32.464Z,6.00
2019-05-18T11:47:01.165Z,5.20
2019-05-18T11:49:29.703Z,7.83
2019-05-18T11:51:58.289Z,5.30
2019-05-18T11:54:26.826Z,5.97
2019-05-18T11:56:55.456Z,7.03
2019-05-18T11:59:23.894Z,6.47
2019-05-18T12:01:52.585Z,5.83
2019-05-18T12:04:21.273Z,9.10
2019-05-18T12:06:49.823Z,5.37
2019-05-18T12:09:18.268Z,5.92
2019-05-18T12:11:46.818Z,5.05
2019-05-18T12:14:15.335Z,6.35
2019-05-18T12:16:44.054Z,9.70
2019-05-18T12:19:12.631Z,6.67
2019-05-18T12:21:41.222Z,6.85
2019-05-18T12:24:15.432Z,6.35
2019-05-18T12:26:40.125Z,7.25
2019-05-18T12:29:08.738Z,9.98
2019-05-18T12:31:37.337Z,7.95
2019-05-18T12:34:05.927Z,5.22
2019-05-18T12:36:34.511Z,5.70
2019-05-18T12:39:03.913Z,5.65
2019-05-18T12:41:32.409Z,5.10
2019-05-18T12:44:00.948Z,5.58
2019-05-18T12:46:29.475Z,5.62
2019-05-18T12:48:58.052Z,6.62
2019-05-18T12:51:26.586Z,6.72
2019-05-18T12:53:55.093Z,4.87
2019-05-18T12:56:23.708Z,6.62
2019-05-18T12:58:52.263Z,7.55
2019-05-18T13:01:20.971Z,6.33
2019-05-18T13:03:49.547Z,5.30
2019-05-18T13:06:18.166Z,6.00
2019-05-18T13:08:46.695Z,5.05
2019-05-18T13:11:15.360Z,10.10
2019-05-18T13:13:43.807Z,6.87
2019-05-18T13:16:12.378Z,6.92
2019-05-18T13:18:40.958Z,8.18
2019-05-18T13:21:09.571Z,6.28
2019-05-18T13:23:38.081Z,5.80
2019-05-18T13:26:06.666Z,5.55
2019-05-18T13:28:35.118Z,7.90
2019-05-18T13:31:03.789Z,8.13
2019-05-18T13:33:32.395Z,5.58
2019-05-18T13:36:00.917Z,9.53
2019-05-18T13:38:29.394Z,5.08
2019-05-18T13:40:57.979Z,6.15
2019-05-18T13:43:26.627Z,6.25
2019-05-18T13:45:55.140Z,6.40
2019-05-18T13:48:23.721Z,6.05
2019-05-18T13:50:52.296Z,6.42
2019-05-18T13:53:20.962Z,6.22
2019-05-18T13:55:49.571Z,5.70
2019-05-18T13:58:18.101Z,6.62
2019-05-18T14:00:46.740Z,6.35
2019-05-18T14:03:15.335Z,5.53
2019-05-18T14:05:43.958Z,6.67
2019-05-18T14:08:15.819Z,5.22
2019-05-18T14:10:43.846Z,7.20
2019-05-18T14:13:12.707Z,6.60
2019-05-18T14:15:41.407Z,5.12
2019-05-18T14:18:10.118Z,7.12
2019-05-18T14:20:38.672Z,8.05
2019-05-18T14:23:07.285Z,6.53
2019-05-18T14:25:36.069Z,6.97
2019-05-18T14:28:04.769Z,5.65
2019-05-18T14:30:33.350Z,4.80
2019-05-18T14:33:02.011Z,6.25
2019-05-18T14:35:33.456Z,7.30
2019-05-18T14:38:01.091Z,5.75
2019-05-18T14:40:29.887Z,6.12
2019-05-18T14:42:58.779Z,5.42
2019-05-18T14:45:27.672Z,6.72
2019-05-18T14:47:57.123Z,6.55
2019-05-18T14:50:26.253Z,4.75
2019-05-18T14:52:55.050Z,5.20
2019-05-18T14:55:33.260Z,6.78
2019-05-18T14:57:55.748Z,5.72
2019-05-18T15:00:24.890Z,11.95
2019-05-18T15:02:53.900Z,5.60
2019-05-18T15:05:23.786Z,7.03
2019-05-18T15:07:53.142Z,6.50
2019-05-18T15:10:21.992Z,5.22
2019-05-18T15:12:50.994Z,6.37
2019-05-18T15:15:21.213Z,5.00
2019-05-18T15:17:49.835Z,10.40
2019-05-18T15:20:19.376Z,6.55
2019-05-18T15:22:48.383Z,5.53
2019-05-18T15:25:17.621Z,6.15
2019-05-18T15:27:46.279Z,4.58
2019-05-18T15:30:15.995Z,5.47
2019-05-18T15:32:44.852Z,4.60
2019-05-18T15:35:14.451Z,5.40
2019-05-18T15:37:43.836Z,5.92
2019-05-18T15:40:13.152Z,5.87
2019-05-18T15:42:41.654Z,10.78
2019-05-18T15:45:10.907Z,9.03
2019-05-18T15:47:39.947Z,7.80
2019-05-18T15:50:08.736Z,7.12
2019-05-18T15:52:37.814Z,5.97
2019-05-18T15:55:08.402Z,6.70
2019-05-18T15:57:37.343Z,5.65
2019-05-18T16:00:08.202Z,6.65
2019-05-18T16:02:36.713Z,5.37
2019-05-18T16:05:05.867Z,6.80
2019-05-18T16:07:34.550Z,5.67
2019-05-18T16:10:03.187Z,6.50
2019-05-18T16:12:31.861Z,6.42
2019-05-18T16:15:00.807Z,7.00
2019-05-18T16:17:39.017Z,8.65
2019-05-18T16:19:59.800Z,6.60
2019-05-18T16:22:28.589Z,7.58
2019-05-18T16:24:57.159Z,7.97
2019-05-18T16:27:25.764Z,6.05
2019-05-18T16:29:54.567Z,5.58
2019-05-18T16:32:23.804Z,8.53
2019-05-18T16:34:52.534Z,8.15
2019-05-18T16:37:21.056Z,7.12
2019-05-18T16:39:49.891Z,6.53
2019-05-18T16:42:18.793Z,20.15
2019-05-18T16:44:47.375Z,12.53
2019-05-18T16:47:15.981Z,23.32
2019-05-18T16:49:44.689Z,10.53
2019-05-18T16:52:13.283Z,7.40
2019-05-18T16:54:41.909Z,9.68
2019-05-18T16:57:10.566Z,7.53
2019-05-18T16:59:39.199Z,9.98
2019-05-18T17:02:07.994Z,10.25
2019-05-18T17:04:36.867Z,16.45
2019-05-18T17:07:05.456Z,29.82
2019-05-18T17:09:34.046Z,13.25
2019-05-18T17:12:02.861Z,11.38
2019-05-18T17:14:31.564Z,10.20
2019-05-18T17:17:00.126Z,13.75
2019-05-18T17:19:28.839Z,10.85
2019-05-18T17:21:57.764Z,9.58
2019-05-18T17:24:26.441Z,13.32
2019-05-18T17:26:55.887Z,13.32
2019-05-18T17:29:24.971Z,20.02
2019-05-18T17:31:53.845Z,18.73
2019-05-18T17:34:23.221Z,16.52
2019-05-18T17:36:53.013Z,8.10
2019-05-18T17:39:23.081Z,10.98
2019-05-18T17:41:53.021Z,9.48
2019-05-18T17:44:22.218Z,9.85
2019-05-18T17:46:51.420Z,11.57
2019-05-18T17:49:26.896Z,10.82
2019-05-18T17:51:51.404Z,10.43
2019-05-18T17:54:20.995Z,9.90
2019-05-18T17:56:49.827Z,10.72
2019-05-18T17:59:18.957Z,13.00
2019-05-18T18:01:47.783Z,11.50
2019-05-18T18:04:17.535Z,12.33
2019-05-18T18:06:46.867Z,10.35
2019-05-18T18:09:16.598Z,9.73
2019-05-18T18:11:46.972Z,9.98
2019-05-18T18:14:16.953Z,9.78
2019-05-18T18:16:46.919Z,9.98
2019-05-18T18:19:16.759Z,9.00
2019-05-18T18:21:46.577Z,9.73
2019-05-18T18:24:16.645Z,10.05
2019-05-18T18:26:45.533Z,9.95
2019-05-18T18:29:14.824Z,10.18
2019-05-18T18:31:43.808Z,10.60
2019-05-18T18:34:12.783Z,11.68
2019-05-18T18:36:41.812Z,13.10
2019-05-18T18:39:11.845Z,13.80
2019-05-18T18:41:41.660Z,14.13
2019-05-18T18:44:10.898Z,14.68
2019-05-18T18:46:39.690Z,14.43
2019-05-18T18:49:09.847Z,14.55
2019-05-18T18:51:39.882Z,16.17
2019-05-18T18:54:12.673Z,14.68
2019-05-18T18:56:41.829Z,15.70
2019-05-18T18:59:11.795Z,15.85
2019-05-18T19:01:41.921Z,16.45
2019-05-18T19:04:11.748Z,14.60
2019-05-18T19:06:41.304Z,15.23
2019-05-18T19:09:11.451Z,15.05
2019-05-18T19:11:42.408Z,15.48
2019-05-18T19:14:12.539Z,15.48
2019-05-18T19:16:43.588Z,15.70
2019-05-18T19:19:12.911Z,15.00
2019-05-18T19:21:42.432Z,15.35
2019-05-18T19:24:12.300Z,14.23
2019-05-18T19:26:42.071Z,15.32
2019-05-18T19:29:12.937Z,14.38
2019-05-18T19:31:43.436Z,13.83
2019-05-18T19:34:13.548Z,13.38
2019-05-18T19:36:43.591Z,13.18
2019-05-18T19:39:13.517Z,13.90
2019-05-18T19:41:43.972Z,14.43
2019-05-18T19:44:14.375Z,13.03
2019-05-18T19:46:43.864Z,12.33
2019-05-18T19:49:14.670Z,12.90
2019-05-18T19:51:45.211Z,12.75
2019-05-18T19:54:15.704Z,12.35
2019-05-18T19:56:46.169Z,12.13
2019-05-18T19:59:16.980Z,13.58
2019-05-18T20:01:47.490Z,11.18
2019-05-18T20:05:11.469Z,10.35
2019-05-18T20:07:41.663Z,10.00
2019-05-18T20:10:12.925Z,10.38
2019-05-18T20:12:43.575Z,10.45
2019-05-18T20:15:14.626Z,10.72
2019-05-18T20:17:45.439Z,10.53
2019-05-18T20:20:16.079Z,11.63
2019-05-18T20:22:47.136Z,11.85
2019-05-18T20:29:52.689Z,14.60
2019-05-18T20:32:23.407Z,18.15
2019-05-18T20:34:53.911Z,25.85
2019-05-18T20:37:24.262Z,21.02
2019-05-18T20:39:55.386Z,17.57
2019-05-18T20:42:25.612Z,15.28
2019-05-18T20:44:55.644Z,16.00
2019-05-18T20:47:25.675Z,13.70
2019-05-18T20:50:31.289Z,13.35
2019-05-18T20:53:01.563Z,11.08
2019-05-18T20:55:31.351Z,11.83
2019-05-18T20:58:00.557Z,12.60
2019-05-18T21:00:29.397Z,11.93
2019-05-18T21:02:58.273Z,11.40
2019-05-18T21:05:27.075Z,10.40
2019-05-18T21:07:56.040Z,12.35
2019-05-18T21:10:24.840Z,11.38
2019-05-18T21:12:53.362Z,10.70
2019-05-18T21:15:22.416Z,10.23
2019-05-18T21:17:51.019Z,9.78
2019-05-18T21:20:19.710Z,10.50
2019-05-18T21:22:48.308Z,10.03
2019-05-18T21:25:17.050Z,9.98
2019-05-18T21:27:46.050Z,10.15
2019-05-18T21:30:15.047Z,10.93
2019-05-18T21:32:43.901Z,10.08
2019-05-18T21:35:12.846Z,10.98
2019-05-18T21:37:41.827Z,10.10
2019-05-18T21:40:10.746Z,11.57
2019-05-18T21:42:39.264Z,10.68
2019-05-18T21:45:08.855Z,11.35
2019-05-18T21:47:37.370Z,10.40
2019-05-18T21:50:08.075Z,11.12
2019-05-18T21:52:36.737Z,10.40
2019-05-18T21:55:06.987Z,9.43
2019-05-18T21:57:35.536Z,9.28
2019-05-18T22:00:05.325Z,8.95
2019-05-18T22:02:33.905Z,9.08
2019-05-18T22:05:02.580Z,9.08
2019-05-18T22:07:31.163Z,8.70
2019-05-18T22:09:59.644Z,9.93
2019-05-18T22:12:28.224Z,8.70
2019-05-18T22:14:56.834Z,9.08
2019-05-18T22:17:25.348Z,9.53
2019-05-18T22:19:54.225Z,9.43
2019-05-18T22:22:22.710Z,13.93
2019-05-18T22:24:51.392Z,13.83
2019-05-18T22:27:19.855Z,15.45
2019-05-18T22:29:48.376Z,14.60
2019-05-18T22:32:16.929Z,15.13
2019-05-18T22:34:45.575Z,15.05
2019-05-18T22:37:14.245Z,13.78
2019-05-18T22:39:42.694Z,14.85
2019-05-18T22:42:11.330Z,14.80
2019-05-18T22:44:39.847Z,15.88
2019-05-18T22:47:08.388Z,15.93
2019-05-18T22:49:36.835Z,17.05
2019-05-18T22:52:05.447Z,15.83
2019-05-18T22:54:34.177Z,16.27
2019-05-18T22:57:02.727Z,17.10
2019-05-18T22:59:31.176Z,16.10
2019-05-18T23:01:59.764Z,19.42
2019-05-18T23:04:28.304Z,17.37
2019-05-18T23:06:56.832Z,16.80
2019-05-18T23:09:25.325Z,18.98
2019-05-18T23:11:53.872Z,16.45
2019-05-18T23:14:22.325Z,18.55
2019-05-18T23:16:50.973Z,18.20
2019-05-18T23:19:19.450Z,19.55
2019-05-18T23:21:48.064Z,19.45
2019-05-18T23:24:16.643Z,19.15
2019-05-18T23:26:45.123Z,22.65
2019-05-18T23:29:13.749Z,18.17
2019-05-18T23:31:42.366Z,18.90
2019-05-18T23:34:10.897Z,20.77
2019-05-18T23:36:39.368Z,19.02
2019-05-18T23:39:07.989Z,18.20
2019-05-18T23:41:36.511Z,19.92
2019-05-18T23:44:05.127Z,18.30
2019-05-18T23:46:33.650Z,19.55
2019-05-18T23:49:10.366Z,18.65
2019-05-18T23:51:32.476Z,20.17
2019-05-18T23:54:00.921Z,22.13
2019-05-18T23:56:29.528Z,20.75
2019-05-18T23:58:57.976Z,24.92
